ARG1603 SAZM-SABE
Flight info
| Callsign | ARG1603 |
|---|---|
| Flight time | 0h 43m |
| Altitude | 27000 |
| Route | PULPA1G PULPA DCT TENIL TENIL8Q |
| Aircraft | B738/M-SDE2E3FGHIRWXY/LB1 |
Departure
| Time | 2026-04-23 23:40 |
|---|---|
| Airport | Ástor Piazzola International Airport (SAZM) |
Arrival
| Time | 2026-04-24 00:24 |
|---|---|
| Airport | Aeroparque Jorge Newbery (SABE) |
| Time | Latitude | Longitude | Altitude | Speed | Heading |
|---|---|---|---|---|---|
| 2026-04-23 23:17 | -37.93334 | -57.58070 | 53 ft | 0 kts | 334° |
| 2026-04-23 23:31 | -37.93342 | -57.58064 | 51 ft | 2 kts | 321° |
| 2026-04-23 23:31 | -37.93350 | -57.58055 | 51 ft | 2 kts | 319° |
| 2026-04-23 23:32 | -37.93359 | -57.58046 | 51 ft | 2 kts | 326° |
| 2026-04-23 23:32 | -37.93366 | -57.58040 | 46 ft | 1 kts | 342° |
| 2026-04-23 23:32 | -37.93372 | -57.58038 | 53 ft | 1 kts | 354° |
| 2026-04-23 23:32 | -37.93378 | -57.58037 | 53 ft | 1 kts | 6° |
| 2026-04-23 23:33 | -37.93384 | -57.58038 | 48 ft | 1 kts | 16° |
| 2026-04-23 23:33 | -37.93390 | -57.58040 | 48 ft | 1 kts | 22° |
| 2026-04-23 23:33 | -37.93395 | -57.58043 | 48 ft | 1 kts | 27° |
| 2026-04-23 23:33 | -37.93398 | -57.58046 | 49 ft | 0 kts | 29° |
| 2026-04-23 23:36 | -37.93380 | -57.58023 | 50 ft | 8 kts | 66° |
| 2026-04-23 23:36 | -37.93409 | -57.57910 | 53 ft | 21 kts | 117° |
| 2026-04-23 23:36 | -37.93487 | -57.57737 | 49 ft | 23 kts | 118° |
| 2026-04-23 23:36 | -37.93563 | -57.57561 | 53 ft | 22 kts | 118° |
| 2026-04-23 23:37 | -37.93639 | -57.57391 | 53 ft | 22 kts | 120° |
| 2026-04-23 23:37 | -37.93713 | -57.57227 | 52 ft | 21 kts | 119° |
| 2026-04-23 23:37 | -37.93783 | -57.57066 | 53 ft | 21 kts | 119° |
| 2026-04-23 23:37 | -37.93852 | -57.56911 | 53 ft | 20 kts | 119° |
| 2026-04-23 23:38 | -37.93919 | -57.56760 | 50 ft | 19 kts | 119° |
| 2026-04-23 23:38 | -37.93983 | -57.56614 | 53 ft | 19 kts | 118° |
| 2026-04-23 23:38 | -37.94027 | -57.56465 | 52 ft | 18 kts | 86° |
| 2026-04-23 23:38 | -37.93970 | -57.56328 | 52 ft | 17 kts | 44° |
| 2026-04-23 23:39 | -37.93956 | -57.56311 | 52 ft | 6 kts | 41° |
| 2026-04-23 23:39 | -37.93932 | -57.56322 | 52 ft | 4 kts | 315° |
| 2026-04-23 23:39 | -37.93914 | -57.56356 | 52 ft | 8 kts | 302° |
| 2026-04-23 23:39 | -37.93741 | -57.56693 | 51 ft | 85 kts | 303° |
| 2026-04-23 23:40 | -37.93294 | -57.57583 | 66 ft | 150 kts | 303° |
| 2026-04-23 23:40 | -37.92706 | -57.58724 | 837 ft | 151 kts | 305° |
| 2026-04-23 23:40 | -37.92122 | -57.59756 | 1942 ft | 137 kts | 308° |
| 2026-04-23 23:40 | -37.91523 | -57.60657 | 2904 ft | 134 kts | 311° |
| 2026-04-23 23:41 | -37.90806 | -57.61516 | 3553 ft | 152 kts | 316° |
| 2026-04-23 23:41 | -37.89905 | -57.62358 | 4252 ft | 166 kts | 322° |
| 2026-04-23 23:41 | -37.88909 | -57.63049 | 5300 ft | 158 kts | 328° |
| 2026-04-23 23:41 | -37.87880 | -57.63515 | 6207 ft | 161 kts | 336° |
| 2026-04-23 23:42 | -37.86696 | -57.63809 | 6706 ft | 187 kts | 345° |
| 2026-04-23 23:42 | -37.85341 | -57.63918 | 7247 ft | 206 kts | 349° |
| 2026-04-23 23:42 | -37.83815 | -57.64000 | 7449 ft | 233 kts | 351° |
| 2026-04-23 23:42 | -37.82104 | -57.64093 | 7649 ft | 259 kts | 351° |
| 2026-04-23 23:43 | -37.80213 | -57.64191 | 8012 ft | 281 kts | 352° |
| 2026-04-23 23:43 | -37.78231 | -57.64284 | 8861 ft | 286 kts | 352° |
| 2026-04-23 23:43 | -37.76233 | -57.64374 | 9836 ft | 289 kts | 352° |
| 2026-04-23 23:43 | -37.74204 | -57.64467 | 10603 ft | 297 kts | 352° |
| 2026-04-23 23:44 | -37.72126 | -57.64567 | 11303 ft | 306 kts | 352° |
| 2026-04-23 23:44 | -37.69942 | -57.64675 | 11276 ft | 317 kts | 352° |
| 2026-04-23 23:44 | -37.67762 | -57.64776 | 11214 ft | 310 kts | 352° |
| 2026-04-23 23:44 | -37.65601 | -57.64873 | 11158 ft | 303 kts | 352° |
| 2026-04-23 23:45 | -37.63523 | -57.64970 | 11267 ft | 303 kts | 352° |
| 2026-04-23 23:45 | -37.61389 | -57.65076 | 11881 ft | 310 kts | 352° |
| 2026-04-23 23:45 | -37.59222 | -57.65184 | 12746 ft | 313 kts | 352° |
| 2026-04-23 23:45 | -37.57036 | -57.65291 | 13638 ft | 316 kts | 351° |
| 2026-04-23 23:46 | -37.54823 | -57.65400 | 14428 ft | 320 kts | 352° |
| 2026-04-23 23:46 | -37.52581 | -57.65510 | 15202 ft | 323 kts | 352° |
| 2026-04-23 23:46 | -37.50324 | -57.65621 | 15973 ft | 326 kts | 352° |
| 2026-04-23 23:46 | -37.48045 | -57.65732 | 16749 ft | 329 kts | 352° |
| 2026-04-23 23:47 | -37.45744 | -57.65845 | 17524 ft | 333 kts | 352° |
| 2026-04-23 23:47 | -37.43742 | -57.65942 | 18207 ft | 335 kts | 352° |
| 2026-04-23 23:47 | -37.42143 | -57.66020 | 18691 ft | 337 kts | 352° |
| 2026-04-23 23:47 | -37.39787 | -57.66135 | 19372 ft | 340 kts | 352° |
| 2026-04-23 23:48 | -37.37423 | -57.66249 | 20075 ft | 341 kts | 352° |
| 2026-04-23 23:48 | -37.35040 | -57.66365 | 20768 ft | 343 kts | 352° |
| 2026-04-23 23:48 | -37.32643 | -57.66482 | 21437 ft | 346 kts | 352° |
| 2026-04-23 23:48 | -37.30224 | -57.66599 | 22102 ft | 349 kts | 352° |
| 2026-04-23 23:49 | -37.25373 | -57.66835 | 23418 ft | 354 kts | 352° |
| 2026-04-23 23:49 | -37.22904 | -57.66955 | 23996 ft | 356 kts | 352° |
| 2026-04-23 23:49 | -37.20415 | -57.67076 | 24551 ft | 358 kts | 352° |
| 2026-04-23 23:50 | -37.17922 | -57.67196 | 25106 ft | 360 kts | 351° |
| 2026-04-23 23:50 | -37.15410 | -57.67317 | 25651 ft | 361 kts | 351° |
| 2026-04-23 23:50 | -37.13920 | -57.67390 | 25970 ft | 362 kts | 351° |
| 2026-04-23 23:50 | -37.11675 | -57.67498 | 26448 ft | 364 kts | 351° |
| 2026-04-23 23:51 | -37.09139 | -57.67621 | 26959 ft | 366 kts | 351° |
| 2026-04-23 23:51 | -37.06572 | -57.67746 | 27117 ft | 372 kts | 351° |
| 2026-04-23 23:51 | -37.03938 | -57.67877 | 27137 ft | 385 kts | 351° |
| 2026-04-23 23:51 | -37.01224 | -57.68011 | 27151 ft | 396 kts | 351° |
| 2026-04-23 23:52 | -36.98478 | -57.68182 | 27148 ft | 401 kts | 349° |
| 2026-04-23 23:52 | -36.95711 | -57.68456 | 27136 ft | 398 kts | 348° |
| 2026-04-23 23:52 | -36.92955 | -57.68769 | 27134 ft | 396 kts | 348° |
| 2026-04-23 23:52 | -36.90221 | -57.69088 | 27133 ft | 394 kts | 348° |
| 2026-04-23 23:53 | -36.87497 | -57.69403 | 27130 ft | 393 kts | 348° |
| 2026-04-23 23:53 | -36.84768 | -57.69710 | 27130 ft | 392 kts | 348° |
| 2026-04-23 23:53 | -36.82056 | -57.70009 | 27135 ft | 391 kts | 348° |
| 2026-04-23 23:53 | -36.79347 | -57.70303 | 27135 ft | 390 kts | 348° |
| 2026-04-23 23:54 | -36.76672 | -57.70590 | 27143 ft | 390 kts | 348° |
| 2026-04-23 23:54 | -36.73964 | -57.70879 | 27143 ft | 389 kts | 348° |
| 2026-04-23 23:54 | -36.71269 | -57.71165 | 27144 ft | 389 kts | 347° |
| 2026-04-23 23:54 | -36.68566 | -57.71451 | 27144 ft | 389 kts | 347° |
| 2026-04-23 23:55 | -36.65862 | -57.71738 | 27146 ft | 389 kts | 347° |
| 2026-04-23 23:55 | -36.63159 | -57.72024 | 27146 ft | 389 kts | 347° |
| 2026-04-23 23:55 | -36.60463 | -57.72309 | 27145 ft | 389 kts | 347° |
| 2026-04-23 23:55 | -36.57759 | -57.72594 | 27149 ft | 389 kts | 347° |
| 2026-04-23 23:56 | -36.55065 | -57.72878 | 27145 ft | 389 kts | 347° |
| 2026-04-23 23:56 | -36.52366 | -57.73163 | 27148 ft | 389 kts | 347° |
| 2026-04-23 23:56 | -36.49675 | -57.73446 | 27149 ft | 389 kts | 347° |
| 2026-04-23 23:56 | -36.46978 | -57.73730 | 27147 ft | 388 kts | 347° |
| 2026-04-23 23:57 | -36.44316 | -57.74010 | 27150 ft | 388 kts | 347° |
| 2026-04-23 23:57 | -36.41630 | -57.74292 | 27150 ft | 388 kts | 347° |
| 2026-04-23 23:57 | -36.38939 | -57.74575 | 27150 ft | 387 kts | 347° |
| 2026-04-23 23:57 | -36.36259 | -57.74856 | 27154 ft | 387 kts | 347° |
| 2026-04-23 23:58 | -36.33574 | -57.75138 | 27151 ft | 387 kts | 347° |
| 2026-04-23 23:58 | -36.30893 | -57.75419 | 27155 ft | 386 kts | 346° |
| 2026-04-23 23:58 | -36.28210 | -57.75700 | 27152 ft | 386 kts | 346° |
| 2026-04-23 23:58 | -36.25535 | -57.75980 | 27152 ft | 386 kts | 346° |
| 2026-04-23 23:59 | -36.22863 | -57.76259 | 27154 ft | 385 kts | 346° |
| 2026-04-23 23:59 | -36.20198 | -57.76538 | 27155 ft | 385 kts | 346° |
| 2026-04-23 23:59 | -36.17530 | -57.76817 | 27154 ft | 385 kts | 346° |
| 2026-04-23 23:59 | -36.14862 | -57.77096 | 27154 ft | 384 kts | 346° |
| 2026-04-24 00:00 | -36.12213 | -57.77474 | 27154 ft | 378 kts | 339° |
| 2026-04-24 00:00 | -36.09727 | -57.78373 | 27154 ft | 369 kts | 331° |
| 2026-04-24 00:00 | -36.07457 | -57.79690 | 27159 ft | 363 kts | 324° |
| 2026-04-24 00:00 | -36.05238 | -57.81186 | 27159 ft | 363 kts | 324° |
| 2026-04-24 00:01 | -36.03022 | -57.82691 | 27160 ft | 363 kts | 324° |
| 2026-04-24 00:01 | -36.00805 | -57.84195 | 27158 ft | 364 kts | 324° |
| 2026-04-24 00:01 | -35.98578 | -57.85700 | 27160 ft | 365 kts | 324° |
| 2026-04-24 00:01 | -35.96349 | -57.87202 | 27154 ft | 365 kts | 324° |
| 2026-04-24 00:02 | -35.94115 | -57.88701 | 27159 ft | 365 kts | 324° |
| 2026-04-24 00:02 | -35.91879 | -57.90198 | 27155 ft | 365 kts | 324° |
| 2026-04-24 00:02 | -35.89643 | -57.91692 | 27156 ft | 365 kts | 324° |
| 2026-04-24 00:02 | -35.87407 | -57.93185 | 27152 ft | 365 kts | 324° |
| 2026-04-24 00:03 | -35.85139 | -57.94702 | 27046 ft | 378 kts | 325° |
| 2026-04-24 00:03 | -35.82797 | -57.96272 | 27006 ft | 389 kts | 325° |
| 2026-04-24 00:03 | -35.80380 | -57.97887 | 26944 ft | 399 kts | 325° |
| 2026-04-24 00:03 | -35.77916 | -57.99530 | 26767 ft | 403 kts | 325° |
| 2026-04-24 00:04 | -35.75437 | -58.01175 | 26516 ft | 408 kts | 325° |
| 2026-04-24 00:04 | -35.72913 | -58.02851 | 26274 ft | 416 kts | 326° |
| 2026-04-24 00:04 | -35.70359 | -58.04545 | 26024 ft | 417 kts | 326° |
| 2026-04-24 00:04 | -35.68384 | -58.05851 | 25823 ft | 414 kts | 326° |
| 2026-04-24 00:05 | -35.65859 | -58.07519 | 25582 ft | 412 kts | 326° |
| 2026-04-24 00:05 | -35.63408 | -58.09142 | 25359 ft | 416 kts | 326° |
| 2026-04-24 00:05 | -35.61775 | -58.10223 | 25202 ft | 418 kts | 326° |
| 2026-04-24 00:05 | -35.59203 | -58.11927 | 24967 ft | 419 kts | 326° |
| 2026-04-24 00:06 | -35.56628 | -58.13631 | 24673 ft | 422 kts | 326° |
| 2026-04-24 00:06 | -35.54028 | -58.15351 | 24179 ft | 425 kts | 326° |
| 2026-04-24 00:06 | -35.51411 | -58.17080 | 23673 ft | 429 kts | 326° |
| 2026-04-24 00:06 | -35.48763 | -58.18829 | 23050 ft | 433 kts | 326° |
| 2026-04-24 00:07 | -35.46103 | -58.20584 | 22482 ft | 436 kts | 326° |
| 2026-04-24 00:07 | -35.43428 | -58.22347 | 21919 ft | 438 kts | 326° |
| 2026-04-24 00:07 | -35.40735 | -58.24119 | 21364 ft | 436 kts | 327° |
| 2026-04-24 00:07 | -35.38111 | -58.25841 | 20831 ft | 432 kts | 327° |
| 2026-04-24 00:08 | -35.35423 | -58.27607 | 20290 ft | 433 kts | 327° |
| 2026-04-24 00:08 | -35.32792 | -58.29333 | 19692 ft | 425 kts | 328° |
| 2026-04-24 00:08 | -35.30235 | -58.31009 | 19104 ft | 420 kts | 328° |
| 2026-04-24 00:08 | -35.27646 | -58.32708 | 18547 ft | 420 kts | 328° |
| 2026-04-24 00:09 | -35.25067 | -58.34400 | 17953 ft | 421 kts | 329° |
| 2026-04-24 00:09 | -35.22481 | -58.36095 | 17411 ft | 424 kts | 329° |
| 2026-04-24 00:09 | -35.19877 | -58.37801 | 16869 ft | 423 kts | 329° |
| 2026-04-24 00:09 | -35.17310 | -58.39477 | 16336 ft | 412 kts | 329° |
| 2026-04-24 00:10 | -35.15652 | -58.40560 | 15997 ft | 405 kts | 329° |
| 2026-04-24 00:10 | -35.13179 | -58.42173 | 15503 ft | 402 kts | 328° |
| 2026-04-24 00:10 | -35.10702 | -58.43792 | 15002 ft | 403 kts | 329° |
| 2026-04-24 00:10 | -35.08235 | -58.45403 | 14503 ft | 400 kts | 329° |
| 2026-04-24 00:11 | -35.05767 | -58.47014 | 13990 ft | 403 kts | 329° |
| 2026-04-24 00:11 | -35.03292 | -58.48628 | 13438 ft | 405 kts | 329° |
| 2026-04-24 00:11 | -35.00827 | -58.50233 | 12910 ft | 396 kts | 329° |
| 2026-04-24 00:11 | -34.98450 | -58.51777 | 12426 ft | 389 kts | 329° |
| 2026-04-24 00:12 | -34.96031 | -58.53350 | 11924 ft | 391 kts | 329° |
| 2026-04-24 00:12 | -34.93620 | -58.54918 | 11427 ft | 390 kts | 330° |
| 2026-04-24 00:12 | -34.91277 | -58.56440 | 10915 ft | 384 kts | 330° |
| 2026-04-24 00:12 | -34.88961 | -58.57943 | 10610 ft | 380 kts | 330° |
| 2026-04-24 00:13 | -34.86580 | -58.59487 | 10401 ft | 382 kts | 330° |
| 2026-04-24 00:13 | -34.84272 | -58.60982 | 10224 ft | 369 kts | 330° |
| 2026-04-24 00:13 | -34.82035 | -58.62430 | 9825 ft | 360 kts | 330° |
| 2026-04-24 00:13 | -34.79852 | -58.63842 | 9412 ft | 352 kts | 330° |
| 2026-04-24 00:14 | -34.77710 | -58.65229 | 9010 ft | 344 kts | 330° |
| 2026-04-24 00:14 | -34.75612 | -58.66585 | 8620 ft | 338 kts | 330° |
| 2026-04-24 00:14 | -34.73549 | -58.67920 | 8194 ft | 333 kts | 331° |
| 2026-04-24 00:14 | -34.71548 | -58.69213 | 7821 ft | 328 kts | 331° |
| 2026-04-24 00:15 | -34.69540 | -58.70509 | 7432 ft | 323 kts | 331° |
| 2026-04-24 00:15 | -34.67573 | -58.71779 | 7062 ft | 316 kts | 331° |
| 2026-04-24 00:15 | -34.65662 | -58.73012 | 6576 ft | 307 kts | 331° |
| 2026-04-24 00:15 | -34.63799 | -58.74213 | 6045 ft | 300 kts | 332° |
| 2026-04-24 00:16 | -34.61974 | -58.75388 | 5522 ft | 294 kts | 332° |
| 2026-04-24 00:16 | -34.60202 | -58.76529 | 5259 ft | 280 kts | 332° |
| 2026-04-24 00:16 | -34.58467 | -58.77390 | 5176 ft | 262 kts | 351° |
| 2026-04-24 00:16 | -34.56669 | -58.77261 | 5187 ft | 262 kts | 17° |
| 2026-04-24 00:17 | -34.55066 | -58.76258 | 5159 ft | 260 kts | 38° |
| 2026-04-24 00:17 | -34.53863 | -58.74599 | 4784 ft | 265 kts | 57° |
| 2026-04-24 00:17 | -34.52887 | -58.72743 | 4525 ft | 255 kts | 58° |
| 2026-04-24 00:17 | -34.51975 | -58.70967 | 4325 ft | 243 kts | 58° |
| 2026-04-24 00:18 | -34.51089 | -58.69250 | 4041 ft | 236 kts | 58° |
| 2026-04-24 00:18 | -34.50229 | -58.67599 | 3843 ft | 227 kts | 58° |
| 2026-04-24 00:18 | -34.49400 | -58.66020 | 3655 ft | 217 kts | 57° |
| 2026-04-24 00:18 | -34.48602 | -58.64505 | 3434 ft | 210 kts | 57° |
| 2026-04-24 00:19 | -34.47824 | -58.63032 | 3296 ft | 199 kts | 57° |
| 2026-04-24 00:19 | -34.47094 | -58.61652 | 3171 ft | 191 kts | 57° |
| 2026-04-24 00:19 | -34.46501 | -58.60275 | 3018 ft | 187 kts | 79° |
| 2026-04-24 00:19 | -34.46521 | -58.58718 | 2860 ft | 188 kts | 105° |
| 2026-04-24 00:20 | -34.47107 | -58.57327 | 2696 ft | 183 kts | 124° |
| 2026-04-24 00:20 | -34.47574 | -58.56502 | 2550 ft | 176 kts | 122° |
| 2026-04-24 00:20 | -34.48236 | -58.55319 | 2345 ft | 164 kts | 122° |
| 2026-04-24 00:20 | -34.48943 | -58.54053 | 2368 ft | 201 kts | 122° |
| 2026-04-24 00:21 | -34.49698 | -58.52710 | 2576 ft | 182 kts | 123° |
| 2026-04-24 00:21 | -34.50378 | -58.51504 | 2399 ft | 161 kts | 122° |
| 2026-04-24 00:21 | -34.50980 | -58.50447 | 2072 ft | 150 kts | 123° |
| 2026-04-24 00:21 | -34.51577 | -58.49400 | 1564 ft | 151 kts | 122° |
| 2026-04-24 00:22 | -34.52151 | -58.48369 | 1240 ft | 147 kts | 121° |
| 2026-04-24 00:22 | -34.52722 | -58.47338 | 1013 ft | 147 kts | 121° |
| 2026-04-24 00:22 | -34.53292 | -58.46311 | 812 ft | 148 kts | 122° |
| 2026-04-24 00:22 | -34.53880 | -58.45251 | 615 ft | 151 kts | 122° |
| 2026-04-24 00:23 | -34.54455 | -58.44211 | 403 ft | 148 kts | 122° |
| 2026-04-24 00:23 | -34.55021 | -58.43190 | 193 ft | 144 kts | 122° |
| 2026-04-24 00:23 | -34.55571 | -58.42209 | 29 ft | 134 kts | 122° |
| 2026-04-24 00:23 | -34.56005 | -58.41432 | 25 ft | 57 kts | 124° |
| 2026-04-24 00:24 | -34.56173 | -58.41127 | 27 ft | 32 kts | 124° |
| 2026-04-24 00:24 | -34.56160 | -58.40984 | 26 ft | 11 kts | 63° |
| 2026-04-24 00:24 | -34.56129 | -58.40972 | 28 ft | 4 kts | 322° |
| 2026-04-24 00:24 | -34.56092 | -58.41023 | 26 ft | 15 kts | 309° |
| 2026-04-24 00:25 | -34.56060 | -58.41075 | 26 ft | 11 kts | 306° |
| 2026-04-24 00:25 | -34.56002 | -58.41169 | 31 ft | 9 kts | 307° |
| 2026-04-24 00:25 | -34.55957 | -58.41242 | 27 ft | 7 kts | 307° |
| 2026-04-24 00:25 | -34.55896 | -58.41291 | 29 ft | 10 kts | 12° |
| 2026-04-24 00:26 | -34.55836 | -58.41272 | 28 ft | 12 kts | 23° |
| 2026-04-24 00:26 | -34.55808 | -58.41248 | 29 ft | 2 kts | 39° |
| 2026-04-24 00:26 | -34.55806 | -58.41247 | 29 ft | 0 kts | 40° |